Archival Weather

Chicago O'Hare International

Chicago, Illinois (KORD)

Report from: Thursday, April 13, 2023 6:51 PM CDT
Current time: Sunday, February 25, 2024 2:41 PM CST

Current weather – Weather history – Daily summaries
Weather forecast

Temperature26.7°C (80.1°F)
Heat index26.2°C (79.1°F)
Dew point1.1°C (34.0°F)
Winds 9 kts (4.6 m/s, 10.4 mph) South-Southwest (210°)
Visibility10 mi. (16.1 km)
Clouds Few clouds 25,000 ft. (7,620 m)
Ceiling: Broken clouds 30,000 ft. (9,144 m)
Altimeter29.77 in.Hg (1008 mB)
Relative humidity19 %
Density altitude1,643 ft. (501 m)
Sea-level pressure100.8 kPa (1008 mB, 29.75 in.Hg)
Max temp last 6 hours28.3°C (82.9°F)
Min temp last 6 hours26.1°C (79.0°F)
Remarks Automated weather observing station with precipitation discriminator
Pressure falling more slowly
Flight conditions Visual Meteorological Conditions
Raw dataKORD 132351Z 21009KT 10SM FEW250 BKN300 27/01 A2977 RMK AO2 SLP076 T02670011 10283 20261 56008
An error has occurred. This application may no longer respond until reloaded. Reload 🗙